Tropical Cyclones
[Index]
Main Index Home Page Stock Weather Photos Extreme Storms Discussion Storm News and Storm Chasing Reports Tropical Cyclones / Hurricanes / Typhoons Weather Data and Links Wild Fires / Bushfires Weather Observation Techniques Weather Picture Catalogue Tornado Pictures and Reports Stock Video Footage and DVDs for sale
Season 1996-1997 Tropical Cyclone DANIELLA Track Map
Season 1996-1997 Summaries: [BoM-AU] [JTWC-AU] [JTWC-SIO] [JTWC-SPAC] [JTWC-SH]
<<- Previous TC | JTWC 1996-1997 Season | Next TC ->>

click for intensity scale information  Lat/long Grid: Show Hide

 Date Labels: Show Hide

Joint Typhoon Warning Centre Cyclone Data

Name: DANIELLA

01 Dec 1996 12:00 UTC to 10 Dec 1996 06:00 UTC

    date/time    lat    long     hPa   cat  kts
1996-12-01 12    6.5    68.9                  20          
1996-12-01 18    7.6    67.6                  20          
1996-12-02 00    8.5    66.1                  25          
1996-12-02 06    9.3    64.7                  25          
1996-12-02 12    9.7    63.5                  25          
1996-12-02 18    9.9    62.5                  30          
1996-12-03 00   10.4    61.8                  30          
1996-12-03 06   10.8    61.2                  35          
1996-12-03 12   11.4    60.8                  35          
1996-12-03 18   12.0    60.5                  35          
1996-12-04 00   12.4    60.1            1     50          
1996-12-04 06   12.8    59.5            2     65          
1996-12-04 12   13.1    58.9            2     70          
1996-12-04 18   13.4    58.3            2     70          
1996-12-05 00   13.6    57.6            3     80          
1996-12-05 06   13.9    56.9            3     95          
1996-12-05 12   14.1    56.5            4    110          
1996-12-05 18   14.2    56.1            4    120          
1996-12-06 00   14.4    55.8            4    120          
1996-12-06 06   14.8    55.7            4    120          
1996-12-06 12   15.3    55.8            4    120          
1996-12-06 18   15.8    55.7            4    115          
1996-12-07 00   16.4    55.6            4    105          
1996-12-07 06   17.0    55.4            4    100          
1996-12-07 12   17.7    55.2            3     95          
1996-12-07 18   18.4    55.4            3     90          
1996-12-08 00   19.0    55.8            3     90          
1996-12-08 06   19.7    56.2            3     85          
1996-12-08 12   20.3    56.7            3     80          
1996-12-08 18   20.9    57.2            3     75          
1996-12-09 00   21.6    57.6            2     70          
1996-12-09 06   22.3    57.9            2     60          
1996-12-09 12   22.9    58.2            1     50          
1996-12-09 18   23.5    58.3                  35          
1996-12-10 00   24.1    58.3                  30          
1996-12-10 06   24.7    58.2                  25          
Winds are 1-min average.

Tropical cyclone tracks developed by Michael Bath using data from the Joint Typhoon Warning Centre Best Tracks and Google Maps.


[Australian Severe Weather index] [Copyright Notice] [Email Contacts] [Search This Site] [Privacy Policy]
Document: tropical_cyclone_daniella.htm Updated: 18 September 2016